sensor_id;sensor_type;location;lat;lon;timestamp;P1;durP1;ratioP1;P2;durP2;ratioP2
12290;SDS011;6208;48.956;9.076;2023-12-20T00:01:49;7.80;;;7.07;;
12290;SDS011;6208;48.956;9.076;2023-12-20T00:04:34;7.55;;;6.82;;
12290;SDS011;6208;48.956;9.076;2023-12-20T00:07:18;8.70;;;7.90;;
12290;SDS011;6208;48.956;9.076;2023-12-20T00:10:03;9.55;;;8.63;;
12290;SDS011;6208;48.956;9.076;2023-12-20T00:12:47;10.50;;;8.70;;
12290;SDS011;6208;48.956;9.076;2023-12-20T00:15:32;9.43;;;8.30;;
12290;SDS011;6208;48.956;9.076;2023-12-20T00:18:16;8.68;;;7.88;;
12290;SDS011;6208;48.956;9.076;2023-12-20T00:21:01;8.63;;;7.43;;
12290;SDS011;6208;48.956;9.076;2023-12-20T00:23:46;8.90;;;8.10;;
12290;SDS011;6208;48.956;9.076;2023-12-20T00:26:30;8.90;;;8.00;;
12290;SDS011;6208;48.956;9.076;2023-12-20T00:29:15;8.77;;;7.97;;
12290;SDS011;6208;48.956;9.076;2023-12-20T00:31:59;7.07;;;6.38;;
12290;SDS011;6208;48.956;9.076;2023-12-20T00:34:44;6.60;;;6.10;;
12290;SDS011;6208;48.956;9.076;2023-12-20T00:37:29;6.85;;;6.20;;
12290;SDS011;6208;48.956;9.076;2023-12-20T00:40:13;7.00;;;6.40;;
12290;SDS011;6208;48.956;9.076;2023-12-20T00:42:59;7.00;;;6.40;;
12290;SDS011;6208;48.956;9.076;2023-12-20T00:45:43;7.18;;;6.57;;
12290;SDS011;6208;48.956;9.076;2023-12-20T00:48:28;6.93;;;6.32;;
12290;SDS011;6208;48.956;9.076;2023-12-20T00:51:14;6.82;;;6.22;;
12290;SDS011;6208;48.956;9.076;2023-12-20T00:53:59;7.32;;;6.72;;
12290;SDS011;6208;48.956;9.076;2023-12-20T00:56:43;7.82;;;6.90;;
12290;SDS011;6208;48.956;9.076;2023-12-20T00:59:28;8.00;;;7.20;;
12290;SDS011;6208;48.956;9.076;2023-12-20T01:02:12;8.00;;;7.30;;
12290;SDS011;6208;48.956;9.076;2023-12-20T01:04:57;7.57;;;6.97;;
12290;SDS011;6208;48.956;9.076;2023-12-20T01:07:41;7.47;;;6.80;;
12290;SDS011;6208;48.956;9.076;2023-12-20T01:10:26;7.72;;;6.93;;
12290;SDS011;6208;48.956;9.076;2023-12-20T01:13:12;6.70;;;6.10;;
12290;SDS011;6208;48.956;9.076;2023-12-20T01:15:57;6.43;;;5.88;;
12290;SDS011;6208;48.956;9.076;2023-12-20T01:18:41;7.25;;;6.57;;
12290;SDS011;6208;48.956;9.076;2023-12-20T01:21:26;7.30;;;6.70;;
12290;SDS011;6208;48.956;9.076;2023-12-20T01:24:10;6.55;;;6.00;;
12290;SDS011;6208;48.956;9.076;2023-12-20T01:26:55;7.82;;;7.03;;
12290;SDS011;6208;48.956;9.076;2023-12-20T01:29:40;6.38;;;5.85;;
12290;SDS011;6208;48.956;9.076;2023-12-20T01:32:24;6.45;;;5.85;;
12290;SDS011;6208;48.956;9.076;2023-12-20T01:35:09;5.30;;;4.88;;
12290;SDS011;6208;48.956;9.076;2023-12-20T01:37:53;4.80;;;4.45;;
12290;SDS011;6208;48.956;9.076;2023-12-20T01:40:40;4.55;;;4.25;;
12290;SDS011;6208;48.956;9.076;2023-12-20T01:43:24;4.47;;;4.18;;
12290;SDS011;6208;48.956;9.076;2023-12-20T01:46:09;4.10;;;3.80;;
12290;SDS011;6208;48.956;9.076;2023-12-20T01:48:56;3.03;;;2.83;;
12290;SDS011;6208;48.956;9.076;2023-12-20T01:51:41;3.40;;;3.20;;
12290;SDS011;6208;48.956;9.076;2023-12-20T01:54:26;2.75;;;2.60;;
12290;SDS011;6208;48.956;9.076;2023-12-20T01:57:11;2.72;;;2.63;;
12290;SDS011;6208;48.956;9.076;2023-12-20T01:59:56;3.42;;;2.92;;
12290;SDS011;6208;48.956;9.076;2023-12-20T02:02:40;2.30;;;2.20;;
12290;SDS011;6208;48.956;9.076;2023-12-20T02:05:25;2.60;;;2.40;;
12290;SDS011;6208;48.956;9.076;2023-12-20T02:08:11;2.23;;;2.10;;
12290;SDS011;6208;48.956;9.076;2023-12-20T02:10:55;2.88;;;2.67;;
12290;SDS011;6208;48.956;9.076;2023-12-20T02:13:40;2.93;;;2.73;;
12290;SDS011;6208;48.956;9.076;2023-12-20T02:16:25;2.30;;;2.20;;
12290;SDS011;6208;48.956;9.076;2023-12-20T02:19:13;1.70;;;1.60;;
12290;SDS011;6208;48.956;9.076;2023-12-20T02:22:05;1.88;;;1.77;;
12290;SDS011;6208;48.956;9.076;2023-12-20T02:24:49;1.33;;;1.30;;
12290;SDS011;6208;48.956;9.076;2023-12-20T02:27:34;1.10;;;1.10;;
12290;SDS011;6208;48.956;9.076;2023-12-20T02:30:20;1.20;;;1.20;;
12290;SDS011;6208;48.956;9.076;2023-12-20T02:33:06;1.08;;;1.08;;
12290;SDS011;6208;48.956;9.076;2023-12-20T02:35:52;1.05;;;1.05;;
12290;SDS011;6208;48.956;9.076;2023-12-20T02:38:37;1.15;;;1.10;;
12290;SDS011;6208;48.956;9.076;2023-12-20T02:41:21;1.60;;;1.30;;
12290;SDS011;6208;48.956;9.076;2023-12-20T02:44:06;1.00;;;1.00;;
12290;SDS011;6208;48.956;9.076;2023-12-20T02:46:51;0.95;;;0.95;;
12290;SDS011;6208;48.956;9.076;2023-12-20T02:49:35;1.00;;;1.00;;
12290;SDS011;6208;48.956;9.076;2023-12-20T02:52:20;1.52;;;1.42;;
12290;SDS011;6208;48.956;9.076;2023-12-20T02:55:05;1.10;;;1.10;;
12290;SDS011;6208;48.956;9.076;2023-12-20T02:57:50;1.00;;;1.00;;
12290;SDS011;6208;48.956;9.076;2023-12-20T03:00:34;1.42;;;1.40;;
12290;SDS011;6208;48.956;9.076;2023-12-20T03:03:19;1.25;;;1.20;;
12290;SDS011;6208;48.956;9.076;2023-12-20T03:06:04;1.42;;;0.90;;
12290;SDS011;6208;48.956;9.076;2023-12-20T03:08:48;0.82;;;0.82;;
12290;SDS011;6208;48.956;9.076;2023-12-20T03:11:33;0.73;;;0.73;;
12290;SDS011;6208;48.956;9.076;2023-12-20T03:14:17;1.10;;;1.00;;
12290;SDS011;6208;48.956;9.076;2023-12-20T03:17:02;0.90;;;0.90;;
12290;SDS011;6208;48.956;9.076;2023-12-20T03:19:46;0.80;;;0.80;;
12290;SDS011;6208;48.956;9.076;2023-12-20T03:22:31;0.80;;;0.80;;
12290;SDS011;6208;48.956;9.076;2023-12-20T03:25:15;0.70;;;0.70;;
12290;SDS011;6208;48.956;9.076;2023-12-20T03:28:00;0.73;;;0.73;;
12290;SDS011;6208;48.956;9.076;2023-12-20T03:30:45;0.70;;;0.70;;
12290;SDS011;6208;48.956;9.076;2023-12-20T03:33:29;0.80;;;0.80;;
12290;SDS011;6208;48.956;9.076;2023-12-20T03:36:14;0.70;;;0.70;;
12290;SDS011;6208;48.956;9.076;2023-12-20T03:38:58;0.80;;;0.80;;
12290;SDS011;6208;48.956;9.076;2023-12-20T03:41:43;0.70;;;0.70;;
12290;SDS011;6208;48.956;9.076;2023-12-20T03:44:28;1.02;;;0.70;;
12290;SDS011;6208;48.956;9.076;2023-12-20T03:47:12;0.60;;;0.60;;
12290;SDS011;6208;48.956;9.076;2023-12-20T03:49:57;0.55;;;0.55;;
12290;SDS011;6208;48.956;9.076;2023-12-20T03:52:41;1.30;;;0.60;;
12290;SDS011;6208;48.956;9.076;2023-12-20T03:55:26;0.90;;;0.90;;
12290;SDS011;6208;48.956;9.076;2023-12-20T03:58:10;0.52;;;0.52;;
12290;SDS011;6208;48.956;9.076;2023-12-20T04:00:55;0.80;;;0.80;;
12290;SDS011;6208;48.956;9.076;2023-12-20T04:03:39;0.90;;;0.90;;
12290;SDS011;6208;48.956;9.076;2023-12-20T04:06:24;1.30;;;0.70;;
12290;SDS011;6208;48.956;9.076;2023-12-20T04:09:09;0.80;;;0.80;;
12290;SDS011;6208;48.956;9.076;2023-12-20T04:11:53;0.70;;;0.70;;
12290;SDS011;6208;48.956;9.076;2023-12-20T04:14:37;0.80;;;0.80;;
12290;SDS011;6208;48.956;9.076;2023-12-20T04:17:22;0.90;;;0.90;;
12290;SDS011;6208;48.956;9.076;2023-12-20T04:20:07;0.90;;;0.90;;
12290;SDS011;6208;48.956;9.076;2023-12-20T04:22:52;1.00;;;1.00;;
12290;SDS011;6208;48.956;9.076;2023-12-20T04:25:36;1.30;;;1.20;;
12290;SDS011;6208;48.956;9.076;2023-12-20T04:28:21;1.60;;;1.50;;
12290;SDS011;6208;48.956;9.076;2023-12-20T04:31:06;1.10;;;1.10;;
12290;SDS011;6208;48.956;9.076;2023-12-20T04:33:50;0.93;;;0.93;;
12290;SDS011;6208;48.956;9.076;2023-12-20T04:36:35;1.00;;;1.00;;
12290;SDS011;6208;48.956;9.076;2023-12-20T04:39:20;1.30;;;1.20;;
12290;SDS011;6208;48.956;9.076;2023-12-20T04:42:05;0.90;;;0.90;;
12290;SDS011;6208;48.956;9.076;2023-12-20T04:44:50;0.80;;;0.80;;
12290;SDS011;6208;48.956;9.076;2023-12-20T04:47:34;0.90;;;0.90;;
12290;SDS011;6208;48.956;9.076;2023-12-20T04:50:19;1.10;;;1.10;;
12290;SDS011;6208;48.956;9.076;2023-12-20T04:53:05;1.10;;;1.10;;
12290;SDS011;6208;48.956;9.076;2023-12-20T04:55:49;1.10;;;1.00;;
12290;SDS011;6208;48.956;9.076;2023-12-20T04:58:34;1.30;;;1.20;;
12290;SDS011;6208;48.956;9.076;2023-12-20T05:01:19;1.40;;;1.40;;
12290;SDS011;6208;48.956;9.076;2023-12-20T05:04:04;1.13;;;1.13;;
12290;SDS011;6208;48.956;9.076;2023-12-20T05:06:49;1.30;;;1.30;;
12290;SDS011;6208;48.956;9.076;2023-12-20T05:09:33;1.50;;;1.50;;
12290;SDS011;6208;48.956;9.076;2023-12-20T05:12:19;2.30;;;2.20;;
12290;SDS011;6208;48.956;9.076;2023-12-20T05:15:05;2.53;;;2.33;;
12290;SDS011;6208;48.956;9.076;2023-12-20T05:17:49;2.40;;;2.25;;
12290;SDS011;6208;48.956;9.076;2023-12-20T05:20:34;2.03;;;1.92;;
12290;SDS011;6208;48.956;9.076;2023-12-20T05:23:19;1.95;;;1.85;;
12290;SDS011;6208;48.956;9.076;2023-12-20T05:26:04;2.23;;;2.13;;
12290;SDS011;6208;48.956;9.076;2023-12-20T05:28:49;2.30;;;2.20;;
12290;SDS011;6208;48.956;9.076;2023-12-20T05:31:33;2.08;;;1.98;;
12290;SDS011;6208;48.956;9.076;2023-12-20T05:34:18;2.83;;;2.63;;
12290;SDS011;6208;48.956;9.076;2023-12-20T05:37:03;2.35;;;2.25;;
12290;SDS011;6208;48.956;9.076;2023-12-20T05:39:48;2.58;;;2.47;;
12290;SDS011;6208;48.956;9.076;2023-12-20T05:42:33;2.47;;;2.38;;
12290;SDS011;6208;48.956;9.076;2023-12-20T05:45:17;2.47;;;2.38;;
12290;SDS011;6208;48.956;9.076;2023-12-20T05:48:02;2.50;;;2.40;;
12290;SDS011;6208;48.956;9.076;2023-12-20T05:50:47;2.50;;;2.40;;
12290;SDS011;6208;48.956;9.076;2023-12-20T05:53:32;2.90;;;2.80;;
12290;SDS011;6208;48.956;9.076;2023-12-20T05:56:17;2.85;;;2.55;;
12290;SDS011;6208;48.956;9.076;2023-12-20T05:59:01;2.75;;;2.55;;
12290;SDS011;6208;48.956;9.076;2023-12-20T06:01:46;3.63;;;2.70;;
12290;SDS011;6208;48.956;9.076;2023-12-20T06:04:31;2.70;;;2.60;;
12290;SDS011;6208;48.956;9.076;2023-12-20T06:07:16;2.55;;;2.45;;
12290;SDS011;6208;48.956;9.076;2023-12-20T06:10:01;2.60;;;2.40;;
12290;SDS011;6208;48.956;9.076;2023-12-20T06:12:45;2.40;;;2.28;;
12290;SDS011;6208;48.956;9.076;2023-12-20T06:15:33;2.70;;;2.60;;
12290;SDS011;6208;48.956;9.076;2023-12-20T06:18:19;3.15;;;3.00;;
12290;SDS011;6208;48.956;9.076;2023-12-20T06:21:04;3.00;;;2.80;;
12290;SDS011;6208;48.956;9.076;2023-12-20T06:23:48;3.33;;;3.10;;
12290;SDS011;6208;48.956;9.076;2023-12-20T06:26:33;3.47;;;3.28;;
12290;SDS011;6208;48.956;9.076;2023-12-20T06:29:17;3.88;;;3.67;;
12290;SDS011;6208;48.956;9.076;2023-12-20T06:32:02;3.90;;;3.60;;
12290;SDS011;6208;48.956;9.076;2023-12-20T06:34:47;4.07;;;3.87;;
12290;SDS011;6208;48.956;9.076;2023-12-20T06:37:31;5.47;;;4.10;;
12290;SDS011;6208;48.956;9.076;2023-12-20T06:40:16;4.10;;;3.80;;
12290;SDS011;6208;48.956;9.076;2023-12-20T06:43:01;3.90;;;3.70;;
12290;SDS011;6208;48.956;9.076;2023-12-20T06:45:45;4.10;;;3.85;;
12290;SDS011;6208;48.956;9.076;2023-12-20T06:48:30;4.10;;;3.80;;
12290;SDS011;6208;48.956;9.076;2023-12-20T06:51:15;4.20;;;3.90;;
12290;SDS011;6208;48.956;9.076;2023-12-20T06:54:00;4.45;;;4.15;;
12290;SDS011;6208;48.956;9.076;2023-12-20T06:56:46;4.20;;;3.90;;
12290;SDS011;6208;48.956;9.076;2023-12-20T06:59:30;4.50;;;4.30;;
12290;SDS011;6208;48.956;9.076;2023-12-20T07:02:15;4.90;;;4.60;;
12290;SDS011;6208;48.956;9.076;2023-12-20T07:04:59;5.00;;;4.70;;
12290;SDS011;6208;48.956;9.076;2023-12-20T07:07:44;5.03;;;4.73;;
12290;SDS011;6208;48.956;9.076;2023-12-20T07:10:29;5.65;;;5.25;;
12290;SDS011;6208;48.956;9.076;2023-12-20T07:13:13;5.22;;;4.93;;
12290;SDS011;6208;48.956;9.076;2023-12-20T07:15:58;5.85;;;5.45;;
12290;SDS011;6208;48.956;9.076;2023-12-20T07:18:42;5.93;;;5.43;;
12290;SDS011;6208;48.956;9.076;2023-12-20T07:21:27;5.97;;;5.57;;
12290;SDS011;6208;48.956;9.076;2023-12-20T07:24:11;5.68;;;5.38;;
12290;SDS011;6208;48.956;9.076;2023-12-20T07:26:56;5.40;;;5.10;;
12290;SDS011;6208;48.956;9.076;2023-12-20T07:29:41;5.35;;;4.95;;
12290;SDS011;6208;48.956;9.076;2023-12-20T07:32:25;4.90;;;4.60;;
12290;SDS011;6208;48.956;9.076;2023-12-20T07:35:10;5.28;;;4.88;;
12290;SDS011;6208;48.956;9.076;2023-12-20T07:37:55;5.38;;;4.97;;
12290;SDS011;6208;48.956;9.076;2023-12-20T07:40:39;4.97;;;4.68;;
12290;SDS011;6208;48.956;9.076;2023-12-20T07:43:24;4.60;;;4.40;;
12290;SDS011;6208;48.956;9.076;2023-12-20T07:46:09;5.03;;;4.72;;
12290;SDS011;6208;48.956;9.076;2023-12-20T07:48:53;5.00;;;4.70;;
12290;SDS011;6208;48.956;9.076;2023-12-20T07:51:38;4.82;;;4.53;;
12290;SDS011;6208;48.956;9.076;2023-12-20T07:54:22;4.60;;;4.30;;
12290;SDS011;6208;48.956;9.076;2023-12-20T07:57:07;4.70;;;4.35;;
12290;SDS011;6208;48.956;9.076;2023-12-20T07:59:52;4.60;;;4.30;;
12290;SDS011;6208;48.956;9.076;2023-12-20T08:02:36;4.78;;;4.47;;
12290;SDS011;6208;48.956;9.076;2023-12-20T08:05:21;4.88;;;4.47;;
12290;SDS011;6208;48.956;9.076;2023-12-20T08:08:06;4.57;;;4.28;;
12290;SDS011;6208;48.956;9.076;2023-12-20T08:10:51;4.35;;;4.05;;
12290;SDS011;6208;48.956;9.076;2023-12-20T08:13:35;4.15;;;3.85;;
12290;SDS011;6208;48.956;9.076;2023-12-20T08:16:20;4.30;;;4.00;;
12290;SDS011;6208;48.956;9.076;2023-12-20T08:19:09;3.93;;;3.63;;
12290;SDS011;6208;48.956;9.076;2023-12-20T08:21:54;4.53;;;4.22;;
12290;SDS011;6208;48.956;9.076;2023-12-20T08:24:38;3.73;;;3.33;;
12290;SDS011;6208;48.956;9.076;2023-12-20T08:27:23;3.83;;;3.45;;
12290;SDS011;6208;48.956;9.076;2023-12-20T08:30:09;3.20;;;3.00;;
12290;SDS011;6208;48.956;9.076;2023-12-20T08:32:54;3.40;;;3.10;;
12290;SDS011;6208;48.956;9.076;2023-12-20T08:35:39;3.53;;;3.22;;
12290;SDS011;6208;48.956;9.076;2023-12-20T08:38:23;3.42;;;3.13;;
12290;SDS011;6208;48.956;9.076;2023-12-20T08:41:08;3.60;;;3.30;;
12290;SDS011;6208;48.956;9.076;2023-12-20T08:43:52;3.70;;;3.50;;
12290;SDS011;6208;48.956;9.076;2023-12-20T08:46:37;3.90;;;3.50;;
12290;SDS011;6208;48.956;9.076;2023-12-20T08:49:22;3.65;;;3.35;;
12290;SDS011;6208;48.956;9.076;2023-12-20T08:52:06;3.30;;;3.10;;
12290;SDS011;6208;48.956;9.076;2023-12-20T08:54:51;3.83;;;3.50;;
12290;SDS011;6208;48.956;9.076;2023-12-20T08:57:37;3.90;;;3.60;;
12290;SDS011;6208;48.956;9.076;2023-12-20T09:00:21;3.97;;;3.65;;
12290;SDS011;6208;48.956;9.076;2023-12-20T09:03:09;3.80;;;3.60;;
12290;SDS011;6208;48.956;9.076;2023-12-20T09:05:53;4.13;;;3.70;;
12290;SDS011;6208;48.956;9.076;2023-12-20T09:08:38;3.93;;;3.63;;
12290;SDS011;6208;48.956;9.076;2023-12-20T09:11:22;4.10;;;3.80;;
12290;SDS011;6208;48.956;9.076;2023-12-20T09:14:07;4.38;;;3.97;;
12290;SDS011;6208;48.956;9.076;2023-12-20T09:16:52;4.03;;;3.60;;
12290;SDS011;6208;48.956;9.076;2023-12-20T09:19:39;3.60;;;3.30;;
12290;SDS011;6208;48.956;9.076;2023-12-20T09:22:24;4.30;;;3.63;;
12290;SDS011;6208;48.956;9.076;2023-12-20T09:25:09;4.05;;;3.60;;
12290;SDS011;6208;48.956;9.076;2023-12-20T09:27:54;3.35;;;3.05;;
12290;SDS011;6208;48.956;9.076;2023-12-20T09:30:39;3.40;;;3.10;;
12290;SDS011;6208;48.956;9.076;2023-12-20T09:33:23;6.35;;;3.47;;
12290;SDS011;6208;48.956;9.076;2023-12-20T09:36:08;4.17;;;3.07;;
12290;SDS011;6208;48.956;9.076;2023-12-20T09:38:53;4.20;;;2.97;;
12290;SDS011;6208;48.956;9.076;2023-12-20T09:41:37;4.20;;;2.60;;
12290;SDS011;6208;48.956;9.076;2023-12-20T09:44:23;3.07;;;2.50;;
12290;SDS011;6208;48.956;9.076;2023-12-20T09:47:08;4.18;;;2.70;;
12290;SDS011;6208;48.956;9.076;2023-12-20T09:49:53;5.50;;;3.00;;
12290;SDS011;6208;48.956;9.076;2023-12-20T09:52:38;4.87;;;2.40;;
12290;SDS011;6208;48.956;9.076;2023-12-20T09:55:23;4.78;;;2.15;;
12290;SDS011;6208;48.956;9.076;2023-12-20T09:58:09;3.58;;;2.10;;
12290;SDS011;6208;48.956;9.076;2023-12-20T10:00:54;4.45;;;2.20;;
12290;SDS011;6208;48.956;9.076;2023-12-20T10:03:39;3.50;;;1.90;;
12290;SDS011;6208;48.956;9.076;2023-12-20T10:06:25;2.78;;;1.83;;
12290;SDS011;6208;48.956;9.076;2023-12-20T10:09:10;4.17;;;2.40;;
12290;SDS011;6208;48.956;9.076;2023-12-20T10:11:55;4.15;;;1.92;;
12290;SDS011;6208;48.956;9.076;2023-12-20T10:14:41;4.57;;;2.08;;
12290;SDS011;6208;48.956;9.076;2023-12-20T10:17:31;3.20;;;1.98;;
12290;SDS011;6208;48.956;9.076;2023-12-20T10:20:22;5.32;;;2.20;;
12290;SDS011;6208;48.956;9.076;2023-12-20T10:26:21;3.60;;;2.10;;
12290;SDS011;6208;48.956;9.076;2023-12-20T10:29:06;3.13;;;1.80;;
12290;SDS011;6208;48.956;9.076;2023-12-20T10:31:51;4.70;;;2.20;;
12290;SDS011;6208;48.956;9.076;2023-12-20T10:34:41;3.78;;;1.83;;
12290;SDS011;6208;48.956;9.076;2023-12-20T10:37:25;4.00;;;2.17;;
12290;SDS011;6208;48.956;9.076;2023-12-20T10:40:11;3.35;;;2.05;;
12290;SDS011;6208;48.956;9.076;2023-12-20T10:42:57;5.17;;;2.00;;
12290;SDS011;6208;48.956;9.076;2023-12-20T10:45:42;3.15;;;2.30;;
12290;SDS011;6208;48.956;9.076;2023-12-20T10:48:27;3.45;;;2.10;;
12290;SDS011;6208;48.956;9.076;2023-12-20T10:51:14;3.92;;;1.98;;
12290;SDS011;6208;48.956;9.076;2023-12-20T10:54:02;4.20;;;1.80;;
12290;SDS011;6208;48.956;9.076;2023-12-20T10:56:46;3.50;;;1.67;;
12290;SDS011;6208;48.956;9.076;2023-12-20T10:59:36;4.40;;;2.10;;
12290;SDS011;6208;48.956;9.076;2023-12-20T11:02:21;3.92;;;1.80;;
12290;SDS011;6208;48.956;9.076;2023-12-20T11:05:06;5.00;;;2.20;;
12290;SDS011;6208;48.956;9.076;2023-12-20T11:08:36;2.97;;;1.60;;
12290;SDS011;6208;48.956;9.076;2023-12-20T11:13:57;5.25;;;1.77;;
12290;SDS011;6208;48.956;9.076;2023-12-20T11:16:42;4.90;;;2.15;;
12290;SDS011;6208;48.956;9.076;2023-12-20T11:19:35;5.07;;;1.50;;
12290;SDS011;6208;48.956;9.076;2023-12-20T11:22:20;4.70;;;2.20;;
12290;SDS011;6208;48.956;9.076;2023-12-20T11:25:05;4.13;;;1.87;;
12290;SDS011;6208;48.956;9.076;2023-12-20T11:28:08;5.70;;;2.30;;
12290;SDS011;6208;48.956;9.076;2023-12-20T11:30:54;4.07;;;2.47;;
12290;SDS011;6208;48.956;9.076;2023-12-20T11:33:39;3.38;;;1.80;;
12290;SDS011;6208;48.956;9.076;2023-12-20T11:36:24;5.07;;;2.22;;
12290;SDS011;6208;48.956;9.076;2023-12-20T11:39:09;5.25;;;2.13;;
12290;SDS011;6208;48.956;9.076;2023-12-20T11:41:55;4.63;;;1.90;;
12290;SDS011;6208;48.956;9.076;2023-12-20T11:44:40;3.88;;;2.30;;
12290;SDS011;6208;48.956;9.076;2023-12-20T11:47:26;6.60;;;2.33;;
12290;SDS011;6208;48.956;9.076;2023-12-20T11:50:11;4.55;;;2.13;;
12290;SDS011;6208;48.956;9.076;2023-12-20T11:52:56;3.33;;;2.20;;
12290;SDS011;6208;48.956;9.076;2023-12-20T11:55:40;4.68;;;2.33;;
12290;SDS011;6208;48.956;9.076;2023-12-20T11:58:25;5.68;;;2.45;;
12290;SDS011;6208;48.956;9.076;2023-12-20T12:01:09;3.90;;;2.50;;
12290;SDS011;6208;48.956;9.076;2023-12-20T12:04:03;4.15;;;2.10;;
12290;SDS011;6208;48.956;9.076;2023-12-20T12:06:48;4.78;;;2.38;;
12290;SDS011;6208;48.956;9.076;2023-12-20T12:09:32;3.40;;;2.10;;
12290;SDS011;6208;48.956;9.076;2023-12-20T12:12:38;6.63;;;2.35;;
12290;SDS011;6208;48.956;9.076;2023-12-20T12:15:23;5.20;;;2.20;;
12290;SDS011;6208;48.956;9.076;2023-12-20T12:18:07;6.13;;;2.37;;
12290;SDS011;6208;48.956;9.076;2023-12-20T12:21:00;5.50;;;2.30;;
12290;SDS011;6208;48.956;9.076;2023-12-20T12:23:46;5.75;;;2.35;;
12290;SDS011;6208;48.956;9.076;2023-12-20T12:26:31;4.53;;;2.20;;
12290;SDS011;6208;48.956;9.076;2023-12-20T12:29:15;4.78;;;2.28;;
12290;SDS011;6208;48.956;9.076;2023-12-20T12:38:31;6.28;;;2.38;;
12290;SDS011;6208;48.956;9.076;2023-12-20T12:41:16;5.47;;;2.42;;
12290;SDS011;6208;48.956;9.076;2023-12-20T12:44:00;5.38;;;2.17;;
12290;SDS011;6208;48.956;9.076;2023-12-20T12:53:30;3.70;;;1.63;;
12290;SDS011;6208;48.956;9.076;2023-12-20T12:56:15;4.22;;;2.08;;
12290;SDS011;6208;48.956;9.076;2023-12-20T12:59:00;6.03;;;2.35;;
12290;SDS011;6208;48.956;9.076;2023-12-20T13:01:44;5.57;;;2.20;;
12290;SDS011;6208;48.956;9.076;2023-12-20T13:04:29;5.03;;;2.03;;
12290;SDS011;6208;48.956;9.076;2023-12-20T13:07:14;4.87;;;2.60;;
12290;SDS011;6208;48.956;9.076;2023-12-20T13:09:58;3.45;;;1.95;;
12290;SDS011;6208;48.956;9.076;2023-12-20T13:12:43;4.55;;;2.22;;
12290;SDS011;6208;48.956;9.076;2023-12-20T13:15:28;5.63;;;2.20;;
12290;SDS011;6208;48.956;9.076;2023-12-20T13:18:14;5.35;;;2.10;;
12290;SDS011;6208;48.956;9.076;2023-12-20T13:20:58;4.60;;;2.00;;
12290;SDS011;6208;48.956;9.076;2023-12-20T13:23:43;4.40;;;2.10;;
12290;SDS011;6208;48.956;9.076;2023-12-20T13:26:27;6.10;;;2.00;;
12290;SDS011;6208;48.956;9.076;2023-12-20T13:29:12;5.95;;;2.20;;
12290;SDS011;6208;48.956;9.076;2023-12-20T13:31:57;7.88;;;2.33;;
12290;SDS011;6208;48.956;9.076;2023-12-20T13:34:41;3.90;;;2.15;;
12290;SDS011;6208;48.956;9.076;2023-12-20T13:37:26;4.85;;;2.03;;
12290;SDS011;6208;48.956;9.076;2023-12-20T13:40:10;3.03;;;2.00;;
12290;SDS011;6208;48.956;9.076;2023-12-20T13:42:56;5.57;;;2.30;;
12290;SDS011;6208;48.956;9.076;2023-12-20T13:45:40;3.78;;;2.25;;
12290;SDS011;6208;48.956;9.076;2023-12-20T13:48:25;3.75;;;2.22;;
12290;SDS011;6208;48.956;9.076;2023-12-20T13:51:09;4.97;;;2.30;;
12290;SDS011;6208;48.956;9.076;2023-12-20T13:53:54;5.70;;;2.33;;
12290;SDS011;6208;48.956;9.076;2023-12-20T13:56:38;4.13;;;2.03;;
12290;SDS011;6208;48.956;9.076;2023-12-20T13:59:23;5.53;;;2.40;;
12290;SDS011;6208;48.956;9.076;2023-12-20T14:02:08;5.18;;;2.22;;
12290;SDS011;6208;48.956;9.076;2023-12-20T14:04:52;5.20;;;2.20;;
12290;SDS011;6208;48.956;9.076;2023-12-20T14:07:37;9.45;;;2.42;;
12290;SDS011;6208;48.956;9.076;2023-12-20T14:10:22;4.82;;;2.20;;
12290;SDS011;6208;48.956;9.076;2023-12-20T14:13:06;4.30;;;2.53;;
12290;SDS011;6208;48.956;9.076;2023-12-20T14:15:51;8.20;;;2.70;;
12290;SDS011;6208;48.956;9.076;2023-12-20T14:18:38;6.77;;;3.07;;
12290;SDS011;6208;48.956;9.076;2023-12-20T14:21:23;5.67;;;2.10;;
12290;SDS011;6208;48.956;9.076;2023-12-20T14:24:08;4.10;;;2.13;;
12290;SDS011;6208;48.956;9.076;2023-12-20T14:26:52;4.90;;;2.50;;
12290;SDS011;6208;48.956;9.076;2023-12-20T14:36:40;4.43;;;2.33;;
12290;SDS011;6208;48.956;9.076;2023-12-20T14:39:25;6.72;;;2.47;;
12290;SDS011;6208;48.956;9.076;2023-12-20T14:42:10;6.40;;;2.70;;
12290;SDS011;6208;48.956;9.076;2023-12-20T14:44:57;5.28;;;2.22;;
12290;SDS011;6208;48.956;9.076;2023-12-20T14:51:47;5.93;;;2.30;;
12290;SDS011;6208;48.956;9.076;2023-12-20T14:54:32;4.70;;;2.28;;
12290;SDS011;6208;48.956;9.076;2023-12-20T14:57:17;5.68;;;2.42;;
12290;SDS011;6208;48.956;9.076;2023-12-20T15:00:01;5.80;;;2.60;;
12290;SDS011;6208;48.956;9.076;2023-12-20T15:02:46;5.40;;;2.40;;
12290;SDS011;6208;48.956;9.076;2023-12-20T15:05:36;6.05;;;2.28;;
12290;SDS011;6208;48.956;9.076;2023-12-20T15:08:40;6.72;;;2.40;;
12290;SDS011;6208;48.956;9.076;2023-12-20T15:38:52;8.20;;;2.70;;
12290;SDS011;6208;48.956;9.076;2023-12-20T15:42:16;5.10;;;2.50;;
12290;SDS011;6208;48.956;9.076;2023-12-20T15:45:01;5.97;;;2.42;;
12290;SDS011;6208;48.956;9.076;2023-12-20T15:47:46;6.07;;;2.63;;
12290;SDS011;6208;48.956;9.076;2023-12-20T15:53:34;6.57;;;2.50;;
12290;SDS011;6208;48.956;9.076;2023-12-20T15:56:19;6.17;;;2.50;;
12290;SDS011;6208;48.956;9.076;2023-12-20T15:59:04;5.13;;;2.28;;
12290;SDS011;6208;48.956;9.076;2023-12-20T16:01:48;5.15;;;2.60;;
12290;SDS011;6208;48.956;9.076;2023-12-20T16:08:01;6.95;;;2.30;;
12290;SDS011;6208;48.956;9.076;2023-12-20T16:14:27;5.30;;;2.23;;
12290;SDS011;6208;48.956;9.076;2023-12-20T16:17:13;6.07;;;2.30;;
12290;SDS011;6208;48.956;9.076;2023-12-20T16:20:24;5.40;;;2.53;;
12290;SDS011;6208;48.956;9.076;2023-12-20T16:26:57;5.20;;;2.50;;
12290;SDS011;6208;48.956;9.076;2023-12-20T16:29:42;5.65;;;3.20;;
12290;SDS011;6208;48.956;9.076;2023-12-20T16:32:27;5.68;;;2.30;;
12290;SDS011;6208;48.956;9.076;2023-12-20T16:35:12;4.60;;;2.03;;
12290;SDS011;6208;48.956;9.076;2023-12-20T16:38:00;4.55;;;2.10;;
12290;SDS011;6208;48.956;9.076;2023-12-20T16:40:44;4.80;;;1.92;;
12290;SDS011;6208;48.956;9.076;2023-12-20T16:43:29;3.10;;;1.70;;
12290;SDS011;6208;48.956;9.076;2023-12-20T16:46:14;3.20;;;1.50;;
12290;SDS011;6208;48.956;9.076;2023-12-20T16:48:58;4.25;;;2.03;;
12290;SDS011;6208;48.956;9.076;2023-12-20T16:51:43;5.07;;;2.00;;
12290;SDS011;6208;48.956;9.076;2023-12-20T16:54:27;4.63;;;2.30;;
12290;SDS011;6208;48.956;9.076;2023-12-20T16:57:19;3.85;;;1.90;;
12290;SDS011;6208;48.956;9.076;2023-12-20T17:00:07;2.45;;;1.70;;
12290;SDS011;6208;48.956;9.076;2023-12-20T17:02:52;3.75;;;2.20;;
12290;SDS011;6208;48.956;9.076;2023-12-20T17:05:36;4.00;;;2.10;;
12290;SDS011;6208;48.956;9.076;2023-12-20T17:08:21;3.78;;;2.47;;
12290;SDS011;6208;48.956;9.076;2023-12-20T17:11:05;3.03;;;1.60;;
12290;SDS011;6208;48.956;9.076;2023-12-20T17:13:50;2.45;;;1.35;;
12290;SDS011;6208;48.956;9.076;2023-12-20T17:16:36;2.03;;;1.25;;
12290;SDS011;6208;48.956;9.076;2023-12-20T17:19:21;2.28;;;1.33;;
12290;SDS011;6208;48.956;9.076;2023-12-20T17:22:07;2.70;;;1.70;;
12290;SDS011;6208;48.956;9.076;2023-12-20T17:24:52;2.40;;;1.50;;
12290;SDS011;6208;48.956;9.076;2023-12-20T17:27:37;3.30;;;2.05;;
12290;SDS011;6208;48.956;9.076;2023-12-20T17:30:22;2.45;;;1.83;;
12290;SDS011;6208;48.956;9.076;2023-12-20T17:33:06;1.90;;;1.35;;
12290;SDS011;6208;48.956;9.076;2023-12-20T17:35:51;3.08;;;1.30;;
12290;SDS011;6208;48.956;9.076;2023-12-20T17:38:35;1.95;;;1.45;;
12290;SDS011;6208;48.956;9.076;2023-12-20T17:41:22;1.88;;;1.20;;
12290;SDS011;6208;48.956;9.076;2023-12-20T17:44:07;2.38;;;1.48;;
12290;SDS011;6208;48.956;9.076;2023-12-20T17:46:52;1.70;;;1.33;;
12290;SDS011;6208;48.956;9.076;2023-12-20T17:49:36;1.98;;;1.30;;
12290;SDS011;6208;48.956;9.076;2023-12-20T17:52:21;1.48;;;1.30;;
12290;SDS011;6208;48.956;9.076;2023-12-20T17:55:06;2.23;;;1.50;;
12290;SDS011;6208;48.956;9.076;2023-12-20T17:57:51;3.13;;;1.50;;
12290;SDS011;6208;48.956;9.076;2023-12-20T18:00:36;2.73;;;1.40;;
12290;SDS011;6208;48.956;9.076;2023-12-20T18:03:23;2.22;;;1.50;;